This is the latest recevied weather packets stored in our database for station/object JF7ELG-13. If no packets are shown the sender has not sent any weather packets the latest 10 day(s).
| Time | Temp. | Humidity | Pressure | Rain* | Wind** | Luminosity | Snow |
|---|---|---|---|---|---|---|---|
| 1777802608 | 18.89° C | 85% | 1000.6 hPa | 0 mm | - | - | - |
| 1777801725 | 19.44° C | 85% | 1000.9 hPa | 0 mm | - | - | - |
| 1777800796 | 19.44° C | 84% | 1001.1 hPa | 0 mm | - | - | - |
| 1777799915 | 19.44° C | 83% | 1001.3 hPa | 0 mm | - | - | - |
| 1777799006 | 19.44° C | 82% | 1001.2 hPa | 0 mm | - | - | - |
| 1777798107 | 19.44° C | 82% | 1001.4 hPa | 0 mm | - | - | - |
| 1777797216 | 18.89° C | 85% | 1001.4 hPa | 0 mm | - | - | - |
| 1777796296 | 18.33° C | 89% | 1001.8 hPa | 0 mm | - | - | - |
| 1777795422 | 18.89° C | 88% | 1002 hPa | 0 mm | - | - | - |
| 1777794500 | 18.89° C | 86% | 1001.5 hPa | 0 mm | - | - | - |
| 1777793611 | 18.89° C | 86% | 1001.8 hPa | 0 mm | - | - | - |
| 1777792694 | 19.44° C | 86% | 1002 hPa | 0 mm | - | - | - |
| 1777791799 | 19.44° C | 84% | 1001.8 hPa | 0 mm | - | - | - |
| 1777790900 | 19.44° C | 84% | 1001.8 hPa | 0 mm | - | - | - |
| 1777790031 | 19.44° C | 84% | 1001.8 hPa | 0 mm | - | - | - |
| 1777789129 | 18.89° C | 85% | 1002.2 hPa | 0 mm | - | - | - |
| 1777788217 | 18.89° C | 85% | 1002.4 hPa | 0 mm | - | - | - |
| 1777787313 | 19.44° C | 84% | 1002.7 hPa | 0 mm | - | - | - |
| 1777786416 | 19.44° C | 83% | 1003.1 hPa | 0 mm | - | - | - |
| 1777785499 | 20° C | 81% | 1003.6 hPa | 0 mm | - | - | - |
| 1777784619 | 20.56° C | 80% | 1003.9 hPa | 0 mm | - | - | - |
| 1777783701 | 20.56° C | 79% | 1004.5 hPa | 0 mm | - | - | - |
| 1777782818 | 20.56° C | 80% | 1004.6 hPa | 0 mm | - | - | - |
| 1777781935 | 21.11° C | 77% | 1004.8 hPa | 0 mm | - | - | - |
| 1777781000 | 21.11° C | 77% | 1005.1 hPa | 0 mm | - | - | - |
* Rain latest hour (hover to see other rain measurements)
** Current wind speed in m/s (hover to see current wind gust speed)